Flight Track Log - Related Links

Times and Time Zones

All times are in EDT time to prevent confusion due to time zone crossing. See the AFR6042 flight status page for this flight to view local times or setup timezone preferences in your user account.

Time Position Orientation Groundspeed Altitude Reporting Facility
EDT Latitude Longitude Course Direction KTS MPH feet Rate Location/Type
Tue 01:02:00 PM 47.7680 2.9213 158° South  Level Estimated
Tue 01:03:00 PM 47.6995 2.9607 159° South  Level Estimated
Tue 01:04:00 PM 47.6310 2.9999 159° South  Level Estimated
Tue 01:05:00 PM 47.5625 3.0390 159° South  Level Estimated
Tue 01:06:00 PM 47.4940 3.0781 159° South  Level Estimated
Tue 01:07:00 PM 47.4255 3.1170 159° South  Level Estimated
Tue 01:08:00 PM 47.3569 3.1558 159° South  Level Estimated
Tue 01:09:00 PM 47.2883 3.1946 159° South  Level Estimated
Tue 01:10:00 PM 47.2198 3.2332 159° South  Level Estimated
Tue 01:11:00 PM 47.1512 3.2717 159° South  Level Estimated
Tue 01:12:00 PM 47.0826 3.3101 159° South  Level Estimated
Tue 01:13:00 PM 47.0140 3.3485 159° South  Level Estimated
Tue 01:14:00 PM 46.9454 3.3867 159° South  Level Estimated
Tue 01:15:00 PM 46.8767 3.4248 159° South  Level Estimated
Tue 01:16:00 PM 46.8081 3.4629 159° South  Level Estimated
Tue 01:17:00 PM 46.7394 3.5008 159° South  Level Estimated
Tue 01:18:00 PM 46.6707 3.5387 159° South  Level Estimated
Tue 01:19:00 PM 46.6020 3.5764 159° South  Level Estimated
Tue 01:20:00 PM 46.5333 3.6141 159° South  Level Estimated
Tue 01:21:00 PM 46.4466 3.6614 159° South  Level Estimated
Tue 01:22:00 PM 46.3598 3.7087 159° South  Level Estimated
Tue 01:23:00 PM 46.2731 3.7558 159° South  Level Estimated
Tue 01:24:00 PM 46.1863 3.8027 159° South  Level Estimated
Tue 01:25:00 PM 46.0994 3.8495 160° South  Level Estimated
Tue 01:26:00 PM 46.0126 3.8962 160° South  Level Estimated
Tue 01:27:00 PM 45.9258 3.9427 160° South  Level Estimated
Tue 01:28:00 PM 45.8389 3.9890 160° South  Level Estimated
Tue 01:29:00 PM 45.7520 4.0352 160° South  Level Estimated
Tue 01:30:00 PM 45.6651 4.0813 160° South  Level Estimated
Tue 01:31:00 PM 45.5782 4.1272 160° South  Level Estimated
Tue 01:32:00 PM 45.4912 4.1730 160° South  Level Estimated
Tue 01:33:00 PM 45.4043 4.2186 160° South  Level Estimated
Tue 01:34:00 PM 45.3173 4.2641 160° South  Level Estimated
Tue 01:35:00 PM 45.2303 4.3095 160° South  Level Estimated
Tue 01:36:00 PM 45.1433 4.3547 160° South  Level Estimated
Tue 01:37:00 PM 45.0562 4.3998 160° South  Level Estimated
Tue 01:38:00 PM 44.9692 4.4448 160° South  Level Estimated
Tue 01:39:00 PM 44.8821 4.4896 160° South  Level Estimated
Tue 01:40:00 PM 44.7950 4.5342 160° South  Level Estimated
Tue 01:41:00 PM 44.7079 4.5788 160° South  Level Estimated
Tue 01:42:00 PM 44.6208 4.6232 160° South  Level Estimated
Tue 01:43:00 PM 44.5336 4.6675 160° South  Level Estimated
Tue 01:44:00 PM 44.4465 4.7116 160° South  Level Estimated
Tue 01:45:00 PM 44.3593 4.7556 160° South  Level Estimated
Tue 01:46:00 PM 44.2721 4.7995 160° South  Level Estimated
Tue 01:47:00 PM 44.1849 4.8432 160° South  Level Estimated
Tue 01:48:00 PM 44.0977 4.8869 160° South  Level Estimated
Tue 01:49:00 PM 44.0104 4.9304 160° South  Level Estimated
Tue 01:50:00 PM 43.9232 4.9737 160° South  Level Estimated
Tue 01:51:00 PM 43.8314 5.0192 160° South  Level Estimated
Tue 01:52:00 PM 43.7396 5.0645 160° South  Level Estimated
Tue 01:53:00 PM 43.6478 5.1097 160° South  Level Estimated
Tue 01:54:00 PM 43.5559 5.1548 160° South  Level Estimated
Tue 01:55:00 PM 43.4641 5.1997 160° South  Level Estimated
Tue 01:56:00 PM 43.4356 5.2136 160° South  Level Estimated
Tue 01:57:00 PM 43.4356 5.2136 172° South  Level Estimated
Tue 01:58:00 PM 43.4356 5.2136 172° South  Level Estimated

Login

Don't have an account? Register now (free) for customized features, flight alerts, and more!